sensor_id;sensor_type;location;lat;lon;timestamp;temperature;humidity
23475;DHT22;11910;52.086;21.066;2024-01-15T00:01:47;2.50;99.90
23475;DHT22;11910;52.086;21.066;2024-01-15T00:04:13;2.50;99.90
23475;DHT22;11910;52.086;21.066;2024-01-15T00:06:39;2.50;99.90
23475;DHT22;11910;52.086;21.066;2024-01-15T00:09:04;2.50;99.90
23475;DHT22;11910;52.086;21.066;2024-01-15T00:11:32;2.50;99.90
23475;DHT22;11910;52.086;21.066;2024-01-15T00:13:57;2.50;99.90
23475;DHT22;11910;52.086;21.066;2024-01-15T00:16:23;2.50;99.90
23475;DHT22;11910;52.086;21.066;2024-01-15T00:18:49;2.50;99.90
23475;DHT22;11910;52.086;21.066;2024-01-15T00:21:14;2.50;99.90
23475;DHT22;11910;52.086;21.066;2024-01-15T00:23:44;2.50;99.90
23475;DHT22;11910;52.086;21.066;2024-01-15T00:26:10;2.50;99.90
23475;DHT22;11910;52.086;21.066;2024-01-15T00:28:37;2.50;99.90
23475;DHT22;11910;52.086;21.066;2024-01-15T00:31:03;2.50;99.90
23475;DHT22;11910;52.086;21.066;2024-01-15T00:33:29;2.50;99.90
23475;DHT22;11910;52.086;21.066;2024-01-15T00:35:55;2.50;99.90
23475;DHT22;11910;52.086;21.066;2024-01-15T00:38:20;2.50;99.90
23475;DHT22;11910;52.086;21.066;2024-01-15T00:40:46;2.50;99.90
23475;DHT22;11910;52.086;21.066;2024-01-15T00:43:11;2.50;99.90
23475;DHT22;11910;52.086;21.066;2024-01-15T00:45:37;2.50;99.90
23475;DHT22;11910;52.086;21.066;2024-01-15T00:48:03;2.50;99.90
23475;DHT22;11910;52.086;21.066;2024-01-15T00:50:29;2.60;99.90
23475;DHT22;11910;52.086;21.066;2024-01-15T00:52:55;2.60;99.90
23475;DHT22;11910;52.086;21.066;2024-01-15T00:55:20;2.60;99.90
23475;DHT22;11910;52.086;21.066;2024-01-15T00:57:46;2.60;99.90
23475;DHT22;11910;52.086;21.066;2024-01-15T01:00:12;2.60;99.90
23475;DHT22;11910;52.086;21.066;2024-01-15T01:02:37;2.60;99.90
23475;DHT22;11910;52.086;21.066;2024-01-15T01:05:03;2.60;99.90
23475;DHT22;11910;52.086;21.066;2024-01-15T01:07:29;2.50;99.90
23475;DHT22;11910;52.086;21.066;2024-01-15T01:09:55;2.50;99.90
23475;DHT22;11910;52.086;21.066;2024-01-15T01:12:20;2.50;99.90
23475;DHT22;11910;52.086;21.066;2024-01-15T01:14:46;2.50;99.90
23475;DHT22;11910;52.086;21.066;2024-01-15T01:17:12;2.50;99.90
23475;DHT22;11910;52.086;21.066;2024-01-15T01:19:37;2.40;99.90
23475;DHT22;11910;52.086;21.066;2024-01-15T01:22:03;2.40;99.90
23475;DHT22;11910;52.086;21.066;2024-01-15T01:24:29;2.30;99.90
23475;DHT22;11910;52.086;21.066;2024-01-15T01:26:54;2.30;99.90
23475;DHT22;11910;52.086;21.066;2024-01-15T01:29:20;2.30;99.90
23475;DHT22;11910;52.086;21.066;2024-01-15T01:31:46;2.30;99.90
23475;DHT22;11910;52.086;21.066;2024-01-15T01:34:15;2.30;99.90
23475;DHT22;11910;52.086;21.066;2024-01-15T01:36:44;2.30;99.90
23475;DHT22;11910;52.086;21.066;2024-01-15T01:39:10;2.30;99.90
23475;DHT22;11910;52.086;21.066;2024-01-15T01:41:36;2.30;99.90
23475;DHT22;11910;52.086;21.066;2024-01-15T01:44:01;2.30;99.90
23475;DHT22;11910;52.086;21.066;2024-01-15T01:46:27;2.30;99.90
23475;DHT22;11910;52.086;21.066;2024-01-15T01:48:55;2.30;99.90
23475;DHT22;11910;52.086;21.066;2024-01-15T01:51:22;2.30;99.90
23475;DHT22;11910;52.086;21.066;2024-01-15T01:53:48;2.30;99.90
23475;DHT22;11910;52.086;21.066;2024-01-15T01:56:15;2.30;99.90
23475;DHT22;11910;52.086;21.066;2024-01-15T01:58:42;2.30;99.90
23475;DHT22;11910;52.086;21.066;2024-01-15T02:01:08;2.30;99.90
23475;DHT22;11910;52.086;21.066;2024-01-15T02:03:33;2.30;99.90
23475;DHT22;11910;52.086;21.066;2024-01-15T02:06:00;2.30;99.90
23475;DHT22;11910;52.086;21.066;2024-01-15T02:08:26;2.30;99.90
23475;DHT22;11910;52.086;21.066;2024-01-15T02:10:52;2.30;99.90
23475;DHT22;11910;52.086;21.066;2024-01-15T02:13:18;2.30;99.90
23475;DHT22;11910;52.086;21.066;2024-01-15T02:15:44;2.30;99.90
23475;DHT22;11910;52.086;21.066;2024-01-15T02:18:10;2.30;99.90
23475;DHT22;11910;52.086;21.066;2024-01-15T02:20:36;2.30;99.90
23475;DHT22;11910;52.086;21.066;2024-01-15T02:25:38;2.30;99.90
23475;DHT22;11910;52.086;21.066;2024-01-15T02:28:06;2.30;99.90
23475;DHT22;11910;52.086;21.066;2024-01-15T02:30:32;2.30;99.90
23475;DHT22;11910;52.086;21.066;2024-01-15T02:32:58;2.30;99.90
23475;DHT22;11910;52.086;21.066;2024-01-15T02:35:23;2.40;99.90
23475;DHT22;11910;52.086;21.066;2024-01-15T02:37:49;2.40;99.90
23475;DHT22;11910;52.086;21.066;2024-01-15T02:40:14;2.30;99.90
23475;DHT22;11910;52.086;21.066;2024-01-15T02:42:40;2.40;99.90
23475;DHT22;11910;52.086;21.066;2024-01-15T02:45:06;2.40;99.90
23475;DHT22;11910;52.086;21.066;2024-01-15T02:47:31;2.40;99.90
23475;DHT22;11910;52.086;21.066;2024-01-15T02:49:57;2.30;99.90
23475;DHT22;11910;52.086;21.066;2024-01-15T02:52:22;2.40;99.90
23475;DHT22;11910;52.086;21.066;2024-01-15T02:54:48;2.40;99.90
23475;DHT22;11910;52.086;21.066;2024-01-15T02:57:13;2.40;99.90
23475;DHT22;11910;52.086;21.066;2024-01-15T02:59:39;2.40;99.90
23475;DHT22;11910;52.086;21.066;2024-01-15T03:02:04;2.30;99.90
23475;DHT22;11910;52.086;21.066;2024-01-15T03:04:30;2.30;99.90
23475;DHT22;11910;52.086;21.066;2024-01-15T03:06:56;2.30;99.90
23475;DHT22;11910;52.086;21.066;2024-01-15T03:09:21;2.30;99.90
23475;DHT22;11910;52.086;21.066;2024-01-15T03:11:47;2.30;99.90
23475;DHT22;11910;52.086;21.066;2024-01-15T03:14:12;2.30;99.90
23475;DHT22;11910;52.086;21.066;2024-01-15T03:16:38;2.30;99.90
23475;DHT22;11910;52.086;21.066;2024-01-15T03:19:03;2.30;99.90
23475;DHT22;11910;52.086;21.066;2024-01-15T03:21:29;2.40;99.90
23475;DHT22;11910;52.086;21.066;2024-01-15T03:23:54;2.30;99.90
23475;DHT22;11910;52.086;21.066;2024-01-15T03:26:20;2.30;99.90
23475;DHT22;11910;52.086;21.066;2024-01-15T03:28:45;2.20;99.90
23475;DHT22;11910;52.086;21.066;2024-01-15T03:31:11;2.10;99.90
23475;DHT22;11910;52.086;21.066;2024-01-15T03:33:37;2.10;99.90
23475;DHT22;11910;52.086;21.066;2024-01-15T03:36:03;2.10;99.90
23475;DHT22;11910;52.086;21.066;2024-01-15T03:38:28;2.00;99.90
23475;DHT22;11910;52.086;21.066;2024-01-15T03:40:54;2.10;99.90
23475;DHT22;11910;52.086;21.066;2024-01-15T03:43:20;2.10;99.90
23475;DHT22;11910;52.086;21.066;2024-01-15T03:45:45;2.10;99.90
23475;DHT22;11910;52.086;21.066;2024-01-15T03:48:11;2.10;99.90
23475;DHT22;11910;52.086;21.066;2024-01-15T03:50:37;2.10;99.90
23475;DHT22;11910;52.086;21.066;2024-01-15T03:53:02;2.10;99.90
23475;DHT22;11910;52.086;21.066;2024-01-15T03:55:28;2.10;99.90
23475;DHT22;11910;52.086;21.066;2024-01-15T03:57:54;2.10;99.90
23475;DHT22;11910;52.086;21.066;2024-01-15T04:00:19;2.10;99.90
23475;DHT22;11910;52.086;21.066;2024-01-15T04:02:45;2.10;99.90
23475;DHT22;11910;52.086;21.066;2024-01-15T04:05:10;2.10;99.90
23475;DHT22;11910;52.086;21.066;2024-01-15T04:07:36;2.10;99.90
23475;DHT22;11910;52.086;21.066;2024-01-15T04:10:02;2.00;99.90
23475;DHT22;11910;52.086;21.066;2024-01-15T04:12:28;2.00;99.90
23475;DHT22;11910;52.086;21.066;2024-01-15T04:14:53;2.00;99.90
23475;DHT22;11910;52.086;21.066;2024-01-15T04:17:19;2.00;99.90
23475;DHT22;11910;52.086;21.066;2024-01-15T04:19:45;2.10;99.90
23475;DHT22;11910;52.086;21.066;2024-01-15T04:22:10;2.10;99.90
23475;DHT22;11910;52.086;21.066;2024-01-15T04:24:36;2.10;99.90
23475;DHT22;11910;52.086;21.066;2024-01-15T04:27:02;2.10;99.90
23475;DHT22;11910;52.086;21.066;2024-01-15T04:29:27;2.10;99.90
23475;DHT22;11910;52.086;21.066;2024-01-15T04:31:53;2.10;99.90
23475;DHT22;11910;52.086;21.066;2024-01-15T04:34:19;2.10;99.90
23475;DHT22;11910;52.086;21.066;2024-01-15T04:36:44;2.10;99.90
23475;DHT22;11910;52.086;21.066;2024-01-15T04:39:10;2.20;99.90
23475;DHT22;11910;52.086;21.066;2024-01-15T04:41:37;2.20;99.90
23475;DHT22;11910;52.086;21.066;2024-01-15T04:44:02;2.20;99.90
23475;DHT22;11910;52.086;21.066;2024-01-15T04:46:28;2.20;99.90
23475;DHT22;11910;52.086;21.066;2024-01-15T04:48:54;2.20;99.90
23475;DHT22;11910;52.086;21.066;2024-01-15T04:51:19;2.20;99.90
23475;DHT22;11910;52.086;21.066;2024-01-15T04:53:45;2.20;99.90
23475;DHT22;11910;52.086;21.066;2024-01-15T04:56:10;2.20;99.90
23475;DHT22;11910;52.086;21.066;2024-01-15T04:58:36;2.20;99.90
23475;DHT22;11910;52.086;21.066;2024-01-15T05:01:01;2.20;99.90
23475;DHT22;11910;52.086;21.066;2024-01-15T05:03:27;2.20;99.90
23475;DHT22;11910;52.086;21.066;2024-01-15T05:05:53;2.20;99.90
23475;DHT22;11910;52.086;21.066;2024-01-15T05:08:18;2.20;99.90
23475;DHT22;11910;52.086;21.066;2024-01-15T05:10:44;2.20;99.90
23475;DHT22;11910;52.086;21.066;2024-01-15T05:13:10;2.20;99.90
23475;DHT22;11910;52.086;21.066;2024-01-15T05:15:35;2.10;99.90
23475;DHT22;11910;52.086;21.066;2024-01-15T05:18:01;2.10;99.90
23475;DHT22;11910;52.086;21.066;2024-01-15T05:20:26;2.20;99.90
23475;DHT22;11910;52.086;21.066;2024-01-15T05:22:52;2.10;99.90
23475;DHT22;11910;52.086;21.066;2024-01-15T05:25:17;2.10;99.90
23475;DHT22;11910;52.086;21.066;2024-01-15T05:27:43;2.10;99.90
23475;DHT22;11910;52.086;21.066;2024-01-15T05:30:09;2.20;99.90
23475;DHT22;11910;52.086;21.066;2024-01-15T05:32:35;2.20;99.90
23475;DHT22;11910;52.086;21.066;2024-01-15T05:35:00;2.20;99.90
23475;DHT22;11910;52.086;21.066;2024-01-15T05:37:26;2.20;99.90
23475;DHT22;11910;52.086;21.066;2024-01-15T05:39:51;2.20;99.90
23475;DHT22;11910;52.086;21.066;2024-01-15T05:42:17;2.30;99.90
23475;DHT22;11910;52.086;21.066;2024-01-15T05:44:42;2.30;99.90
23475;DHT22;11910;52.086;21.066;2024-01-15T05:47:08;2.30;99.90
23475;DHT22;11910;52.086;21.066;2024-01-15T05:49:34;2.30;99.90
23475;DHT22;11910;52.086;21.066;2024-01-15T05:51:59;2.20;99.90
23475;DHT22;11910;52.086;21.066;2024-01-15T05:54:25;2.20;99.90
23475;DHT22;11910;52.086;21.066;2024-01-15T05:56:50;2.30;99.90
23475;DHT22;11910;52.086;21.066;2024-01-15T05:59:16;2.30;99.90
23475;DHT22;11910;52.086;21.066;2024-01-15T06:01:42;2.30;99.90
23475;DHT22;11910;52.086;21.066;2024-01-15T06:04:07;2.30;99.90
23475;DHT22;11910;52.086;21.066;2024-01-15T06:06:33;2.30;99.90
23475;DHT22;11910;52.086;21.066;2024-01-15T06:08:59;2.30;99.90
23475;DHT22;11910;52.086;21.066;2024-01-15T06:11:33;2.30;99.90
23475;DHT22;11910;52.086;21.066;2024-01-15T06:13:59;2.30;99.90
23475;DHT22;11910;52.086;21.066;2024-01-15T06:16:25;2.30;99.90
23475;DHT22;11910;52.086;21.066;2024-01-15T06:18:51;2.30;99.90
23475;DHT22;11910;52.086;21.066;2024-01-15T06:21:17;2.30;99.90
23475;DHT22;11910;52.086;21.066;2024-01-15T06:23:43;2.40;99.90
23475;DHT22;11910;52.086;21.066;2024-01-15T06:26:08;2.30;99.90
23475;DHT22;11910;52.086;21.066;2024-01-15T06:28:34;2.30;99.90
23475;DHT22;11910;52.086;21.066;2024-01-15T06:31:00;2.30;99.90
23475;DHT22;11910;52.086;21.066;2024-01-15T06:33:25;2.20;99.90
23475;DHT22;11910;52.086;21.066;2024-01-15T06:35:51;2.30;99.90
23475;DHT22;11910;52.086;21.066;2024-01-15T06:38:16;2.30;99.90
23475;DHT22;11910;52.086;21.066;2024-01-15T06:40:42;2.30;99.90
23475;DHT22;11910;52.086;21.066;2024-01-15T06:43:12;2.30;99.90
23475;DHT22;11910;52.086;21.066;2024-01-15T06:45:38;2.30;99.90
23475;DHT22;11910;52.086;21.066;2024-01-15T06:48:04;2.30;99.90
23475;DHT22;11910;52.086;21.066;2024-01-15T06:50:30;2.30;99.90
23475;DHT22;11910;52.086;21.066;2024-01-15T06:52:55;2.30;99.90
23475;DHT22;11910;52.086;21.066;2024-01-15T06:55:21;2.30;99.90
23475;DHT22;11910;52.086;21.066;2024-01-15T06:57:47;2.40;99.90
23475;DHT22;11910;52.086;21.066;2024-01-15T07:00:13;2.40;99.90
23475;DHT22;11910;52.086;21.066;2024-01-15T07:02:38;2.40;99.90
23475;DHT22;11910;52.086;21.066;2024-01-15T07:05:04;2.40;99.90
23475;DHT22;11910;52.086;21.066;2024-01-15T07:07:31;2.40;99.90
23475;DHT22;11910;52.086;21.066;2024-01-15T07:09:57;2.50;99.90
23475;DHT22;11910;52.086;21.066;2024-01-15T07:12:22;2.50;99.90
23475;DHT22;11910;52.086;21.066;2024-01-15T07:14:48;2.50;99.90
23475;DHT22;11910;52.086;21.066;2024-01-15T07:17:14;2.50;99.90
23475;DHT22;11910;52.086;21.066;2024-01-15T07:19:40;2.50;99.90
23475;DHT22;11910;52.086;21.066;2024-01-15T07:22:06;2.50;99.90
23475;DHT22;11910;52.086;21.066;2024-01-15T07:24:31;2.40;99.90
23475;DHT22;11910;52.086;21.066;2024-01-15T07:26:59;2.40;99.90
23475;DHT22;11910;52.086;21.066;2024-01-15T07:29:25;2.30;99.90
23475;DHT22;11910;52.086;21.066;2024-01-15T07:31:51;2.40;99.90
23475;DHT22;11910;52.086;21.066;2024-01-15T07:34:17;2.40;99.90
23475;DHT22;11910;52.086;21.066;2024-01-15T07:36:45;2.40;99.90
23475;DHT22;11910;52.086;21.066;2024-01-15T07:39:11;2.30;99.90
23475;DHT22;11910;52.086;21.066;2024-01-15T07:41:37;2.30;99.90
23475;DHT22;11910;52.086;21.066;2024-01-15T07:44:05;2.30;99.90
23475;DHT22;11910;52.086;21.066;2024-01-15T07:46:31;2.30;99.90
23475;DHT22;11910;52.086;21.066;2024-01-15T07:48:57;2.20;99.90
23475;DHT22;11910;52.086;21.066;2024-01-15T07:51:23;2.10;99.90
23475;DHT22;11910;52.086;21.066;2024-01-15T07:53:50;2.10;99.90
23475;DHT22;11910;52.086;21.066;2024-01-15T07:56:16;2.20;99.90
23475;DHT22;11910;52.086;21.066;2024-01-15T07:58:42;2.20;99.90
23475;DHT22;11910;52.086;21.066;2024-01-15T08:01:07;2.20;99.90
23475;DHT22;11910;52.086;21.066;2024-01-15T08:03:33;2.20;99.90
23475;DHT22;11910;52.086;21.066;2024-01-15T08:05:59;2.30;99.90
23475;DHT22;11910;52.086;21.066;2024-01-15T08:08:25;2.30;99.90
23475;DHT22;11910;52.086;21.066;2024-01-15T08:10:53;2.30;99.90
23475;DHT22;11910;52.086;21.066;2024-01-15T08:13:19;2.30;99.90
23475;DHT22;11910;52.086;21.066;2024-01-15T08:15:45;2.20;99.90
23475;DHT22;11910;52.086;21.066;2024-01-15T08:18:11;2.20;99.90
23475;DHT22;11910;52.086;21.066;2024-01-15T08:20:37;2.20;99.90
23475;DHT22;11910;52.086;21.066;2024-01-15T08:23:03;2.10;99.90
23475;DHT22;11910;52.086;21.066;2024-01-15T08:25:28;2.00;99.90
23475;DHT22;11910;52.086;21.066;2024-01-15T08:27:55;1.90;99.90
23475;DHT22;11910;52.086;21.066;2024-01-15T08:30:21;1.90;99.90
23475;DHT22;11910;52.086;21.066;2024-01-15T08:32:50;2.00;99.90
23475;DHT22;11910;52.086;21.066;2024-01-15T08:35:15;1.90;99.90
23475;DHT22;11910;52.086;21.066;2024-01-15T08:37:41;2.00;99.90
23475;DHT22;11910;52.086;21.066;2024-01-15T08:40:07;2.10;99.90
23475;DHT22;11910;52.086;21.066;2024-01-15T08:42:33;2.10;99.90
23475;DHT22;11910;52.086;21.066;2024-01-15T08:44:58;2.10;99.90
23475;DHT22;11910;52.086;21.066;2024-01-15T08:47:24;2.10;99.90
23475;DHT22;11910;52.086;21.066;2024-01-15T08:49:51;2.00;99.90
23475;DHT22;11910;52.086;21.066;2024-01-15T08:52:16;2.00;99.90
23475;DHT22;11910;52.086;21.066;2024-01-15T08:54:42;2.00;99.90
23475;DHT22;11910;52.086;21.066;2024-01-15T08:57:07;2.10;99.90
23475;DHT22;11910;52.086;21.066;2024-01-15T08:59:33;2.10;99.90
23475;DHT22;11910;52.086;21.066;2024-01-15T09:01:58;2.00;99.90
23475;DHT22;11910;52.086;21.066;2024-01-15T09:04:25;2.10;99.90
23475;DHT22;11910;52.086;21.066;2024-01-15T09:06:50;2.10;99.90
23475;DHT22;11910;52.086;21.066;2024-01-15T09:09:16;2.20;99.90
23475;DHT22;11910;52.086;21.066;2024-01-15T09:11:41;2.30;99.90
23475;DHT22;11910;52.086;21.066;2024-01-15T09:14:07;2.40;99.90
23475;DHT22;11910;52.086;21.066;2024-01-15T09:16:33;2.40;99.90
23475;DHT22;11910;52.086;21.066;2024-01-15T09:18:59;2.50;99.90
23475;DHT22;11910;52.086;21.066;2024-01-15T09:21:25;2.70;99.90
23475;DHT22;11910;52.086;21.066;2024-01-15T09:23:51;2.90;99.90
23475;DHT22;11910;52.086;21.066;2024-01-15T09:26:17;3.00;99.90
23475;DHT22;11910;52.086;21.066;2024-01-15T09:28:42;2.90;99.90
23475;DHT22;11910;52.086;21.066;2024-01-15T09:31:08;2.90;99.90
23475;DHT22;11910;52.086;21.066;2024-01-15T09:33:33;3.00;99.90
23475;DHT22;11910;52.086;21.066;2024-01-15T09:36:03;3.10;99.90
23475;DHT22;11910;52.086;21.066;2024-01-15T09:38:31;3.00;99.90
23475;DHT22;11910;52.086;21.066;2024-01-15T09:40:57;3.00;99.90
23475;DHT22;11910;52.086;21.066;2024-01-15T09:43:23;3.00;99.90
23475;DHT22;11910;52.086;21.066;2024-01-15T09:45:49;3.10;99.90
23475;DHT22;11910;52.086;21.066;2024-01-15T09:48:16;3.10;99.90
23475;DHT22;11910;52.086;21.066;2024-01-15T09:50:42;3.20;99.90
23475;DHT22;11910;52.086;21.066;2024-01-15T09:53:09;3.30;99.90
23475;DHT22;11910;52.086;21.066;2024-01-15T09:55:36;3.30;99.90
23475;DHT22;11910;52.086;21.066;2024-01-15T09:58:03;3.30;99.90
23475;DHT22;11910;52.086;21.066;2024-01-15T10:00:29;3.30;99.90
23475;DHT22;11910;52.086;21.066;2024-01-15T10:02:57;3.30;99.90
23475;DHT22;11910;52.086;21.066;2024-01-15T10:05:24;3.20;99.90
23475;DHT22;11910;52.086;21.066;2024-01-15T10:07:51;3.20;99.90
23475;DHT22;11910;52.086;21.066;2024-01-15T10:10:18;3.20;99.90
23475;DHT22;11910;52.086;21.066;2024-01-15T10:12:44;3.20;99.90
23475;DHT22;11910;52.086;21.066;2024-01-15T10:15:10;3.30;99.90
23475;DHT22;11910;52.086;21.066;2024-01-15T10:17:38;3.30;99.90
23475;DHT22;11910;52.086;21.066;2024-01-15T10:20:11;3.30;99.90
23475;DHT22;11910;52.086;21.066;2024-01-15T10:22:41;3.30;99.90
23475;DHT22;11910;52.086;21.066;2024-01-15T10:25:10;3.20;99.90
23475;DHT22;11910;52.086;21.066;2024-01-15T10:27:36;3.20;99.90
23475;DHT22;11910;52.086;21.066;2024-01-15T10:30:02;3.30;99.90
23475;DHT22;11910;52.086;21.066;2024-01-15T10:32:28;3.30;99.90
23475;DHT22;11910;52.086;21.066;2024-01-15T10:34:54;3.40;99.90
23475;DHT22;11910;52.086;21.066;2024-01-15T10:37:20;3.30;99.90
23475;DHT22;11910;52.086;21.066;2024-01-15T10:39:48;3.30;99.90
23475;DHT22;11910;52.086;21.066;2024-01-15T10:42:14;3.20;99.90
23475;DHT22;11910;52.086;21.066;2024-01-15T10:44:41;3.20;99.90
23475;DHT22;11910;52.086;21.066;2024-01-15T10:47:08;3.20;99.90
23475;DHT22;11910;52.086;21.066;2024-01-15T10:49:34;3.20;99.90
23475;DHT22;11910;52.086;21.066;2024-01-15T10:52:01;3.10;99.90
23475;DHT22;11910;52.086;21.066;2024-01-15T10:54:27;3.20;99.90
23475;DHT22;11910;52.086;21.066;2024-01-15T10:56:53;3.40;99.90
23475;DHT22;11910;52.086;21.066;2024-01-15T10:59:20;3.40;99.90
23475;DHT22;11910;52.086;21.066;2024-01-15T11:01:48;3.80;99.90
23475;DHT22;11910;52.086;21.066;2024-01-15T11:04:14;4.10;99.90
23475;DHT22;11910;52.086;21.066;2024-01-15T11:06:45;4.10;99.90
23475;DHT22;11910;52.086;21.066;2024-01-15T11:09:12;3.90;99.90
23475;DHT22;11910;52.086;21.066;2024-01-15T11:11:45;3.80;99.90
23475;DHT22;11910;52.086;21.066;2024-01-15T11:14:34;3.60;99.90
23475;DHT22;11910;52.086;21.066;2024-01-15T11:17:03;3.60;99.90
23475;DHT22;11910;52.086;21.066;2024-01-15T11:19:46;3.60;99.90
23475;DHT22;11910;52.086;21.066;2024-01-15T11:24:56;3.40;99.90
23475;DHT22;11910;52.086;21.066;2024-01-15T11:30:12;3.40;99.90
23475;DHT22;11910;52.086;21.066;2024-01-15T11:32:39;3.40;99.90
23475;DHT22;11910;52.086;21.066;2024-01-15T11:35:09;3.40;99.90
23475;DHT22;11910;52.086;21.066;2024-01-15T11:43:02;3.40;99.90
23475;DHT22;11910;52.086;21.066;2024-01-15T11:45:35;3.40;99.90
23475;DHT22;11910;52.086;21.066;2024-01-15T11:48:12;3.40;99.90
23475;DHT22;11910;52.086;21.066;2024-01-15T11:50:49;3.50;99.90
23475;DHT22;11910;52.086;21.066;2024-01-15T11:55:57;3.30;99.90
23475;DHT22;11910;52.086;21.066;2024-01-15T11:58:23;3.20;99.90
23475;DHT22;11910;52.086;21.066;2024-01-15T12:00:51;3.20;99.90
23475;DHT22;11910;52.086;21.066;2024-01-15T12:03:20;3.20;99.90
23475;DHT22;11910;52.086;21.066;2024-01-15T12:05:45;3.30;99.90
23475;DHT22;11910;52.086;21.066;2024-01-15T12:08:11;3.30;99.90
23475;DHT22;11910;52.086;21.066;2024-01-15T12:10:37;3.20;99.90
23475;DHT22;11910;52.086;21.066;2024-01-15T12:15:35;3.20;99.90
23475;DHT22;11910;52.086;21.066;2024-01-15T12:18:02;3.10;99.90
23475;DHT22;11910;52.086;21.066;2024-01-15T12:20:29;3.00;99.90
23475;DHT22;11910;52.086;21.066;2024-01-15T12:22:55;2.90;99.90
23475;DHT22;11910;52.086;21.066;2024-01-15T12:25:22;2.80;99.90
23475;DHT22;11910;52.086;21.066;2024-01-15T12:27:48;2.70;99.90
23475;DHT22;11910;52.086;21.066;2024-01-15T12:30:15;2.70;99.90
23475;DHT22;11910;52.086;21.066;2024-01-15T12:32:43;2.60;99.90
23475;DHT22;11910;52.086;21.066;2024-01-15T12:35:13;2.60;99.90
23475;DHT22;11910;52.086;21.066;2024-01-15T12:37:40;2.60;99.90
23475;DHT22;11910;52.086;21.066;2024-01-15T12:40:07;2.60;99.90
23475;DHT22;11910;52.086;21.066;2024-01-15T12:42:33;2.70;99.90
23475;DHT22;11910;52.086;21.066;2024-01-15T12:45:00;2.70;99.90
23475;DHT22;11910;52.086;21.066;2024-01-15T12:47:26;2.70;99.90
23475;DHT22;11910;52.086;21.066;2024-01-15T12:49:52;2.70;99.90
23475;DHT22;11910;52.086;21.066;2024-01-15T12:52:20;2.70;99.90
23475;DHT22;11910;52.086;21.066;2024-01-15T12:54:49;2.70;99.90
23475;DHT22;11910;52.086;21.066;2024-01-15T12:57:16;2.60;99.90
23475;DHT22;11910;52.086;21.066;2024-01-15T12:59:43;2.60;99.90
23475;DHT22;11910;52.086;21.066;2024-01-15T13:02:11;2.60;99.90
23475;DHT22;11910;52.086;21.066;2024-01-15T13:04:37;2.60;99.90
23475;DHT22;11910;52.086;21.066;2024-01-15T13:07:02;2.50;99.90
23475;DHT22;11910;52.086;21.066;2024-01-15T13:09:28;2.20;99.90
23475;DHT22;11910;52.086;21.066;2024-01-15T13:11:55;2.10;99.90
23475;DHT22;11910;52.086;21.066;2024-01-15T13:14:20;1.90;99.90
23475;DHT22;11910;52.086;21.066;2024-01-15T13:16:46;1.80;99.90
23475;DHT22;11910;52.086;21.066;2024-01-15T13:19:12;1.90;99.90
23475;DHT22;11910;52.086;21.066;2024-01-15T13:21:41;1.80;99.90
23475;DHT22;11910;52.086;21.066;2024-01-15T13:24:07;1.80;99.90
23475;DHT22;11910;52.086;21.066;2024-01-15T13:26:33;1.80;99.90
23475;DHT22;11910;52.086;21.066;2024-01-15T13:29:03;1.70;99.90
23475;DHT22;11910;52.086;21.066;2024-01-15T13:31:32;1.80;99.90
23475;DHT22;11910;52.086;21.066;2024-01-15T13:33:58;1.80;99.90
23475;DHT22;11910;52.086;21.066;2024-01-15T13:36:24;1.80;99.90
23475;DHT22;11910;52.086;21.066;2024-01-15T13:38:50;1.80;99.90
23475;DHT22;11910;52.086;21.066;2024-01-15T13:41:17;1.80;99.90
23475;DHT22;11910;52.086;21.066;2024-01-15T13:43:49;1.80;99.90
23475;DHT22;11910;52.086;21.066;2024-01-15T13:46:16;1.90;99.90
23475;DHT22;11910;52.086;21.066;2024-01-15T13:48:43;1.90;99.90
23475;DHT22;11910;52.086;21.066;2024-01-15T13:51:08;1.90;99.90
23475;DHT22;11910;52.086;21.066;2024-01-15T13:53:34;1.90;99.90
23475;DHT22;11910;52.086;21.066;2024-01-15T13:55:59;1.90;99.90
23475;DHT22;11910;52.086;21.066;2024-01-15T13:58:25;1.90;99.90
23475;DHT22;11910;52.086;21.066;2024-01-15T14:00:51;2.00;99.90
23475;DHT22;11910;52.086;21.066;2024-01-15T14:03:17;1.90;99.90
23475;DHT22;11910;52.086;21.066;2024-01-15T14:05:44;1.90;99.90
23475;DHT22;11910;52.086;21.066;2024-01-15T14:08:10;1.90;99.90
23475;DHT22;11910;52.086;21.066;2024-01-15T14:10:36;1.90;99.90
23475;DHT22;11910;52.086;21.066;2024-01-15T14:13:02;1.90;99.90
23475;DHT22;11910;52.086;21.066;2024-01-15T14:15:29;2.00;99.90
23475;DHT22;11910;52.086;21.066;2024-01-15T14:17:55;2.00;99.90
23475;DHT22;11910;52.086;21.066;2024-01-15T14:20:20;2.00;99.90
23475;DHT22;11910;52.086;21.066;2024-01-15T14:22:46;2.00;99.90
23475;DHT22;11910;52.086;21.066;2024-01-15T14:25:12;2.00;99.90
23475;DHT22;11910;52.086;21.066;2024-01-15T14:27:37;2.00;99.90
23475;DHT22;11910;52.086;21.066;2024-01-15T14:30:03;2.00;99.90
23475;DHT22;11910;52.086;21.066;2024-01-15T14:32:31;2.00;99.90
23475;DHT22;11910;52.086;21.066;2024-01-15T14:34:56;2.00;99.90
23475;DHT22;11910;52.086;21.066;2024-01-15T14:37:22;2.00;99.90
23475;DHT22;11910;52.086;21.066;2024-01-15T14:39:47;2.00;99.90
23475;DHT22;11910;52.086;21.066;2024-01-15T14:42:13;2.00;99.90
23475;DHT22;11910;52.086;21.066;2024-01-15T14:44:39;1.90;99.90
23475;DHT22;11910;52.086;21.066;2024-01-15T14:47:06;2.00;99.90
23475;DHT22;11910;52.086;21.066;2024-01-15T14:49:32;1.90;99.90
23475;DHT22;11910;52.086;21.066;2024-01-15T14:51:57;1.90;99.90
23475;DHT22;11910;52.086;21.066;2024-01-15T14:54:23;1.90;99.90
23475;DHT22;11910;52.086;21.066;2024-01-15T14:56:48;1.90;99.90
23475;DHT22;11910;52.086;21.066;2024-01-15T14:59:14;1.90;99.90
23475;DHT22;11910;52.086;21.066;2024-01-15T15:01:39;1.90;99.90
23475;DHT22;11910;52.086;21.066;2024-01-15T15:04:05;1.90;99.90
23475;DHT22;11910;52.086;21.066;2024-01-15T15:06:31;1.90;99.90
23475;DHT22;11910;52.086;21.066;2024-01-15T15:08:56;1.90;99.90
23475;DHT22;11910;52.086;21.066;2024-01-15T15:11:27;1.90;99.90
23475;DHT22;11910;52.086;21.066;2024-01-15T15:13:53;1.90;99.90
23475;DHT22;11910;52.086;21.066;2024-01-15T15:16:19;1.90;99.90
23475;DHT22;11910;52.086;21.066;2024-01-15T15:18:44;2.00;99.90
23475;DHT22;11910;52.086;21.066;2024-01-15T15:21:11;2.00;99.90
23475;DHT22;11910;52.086;21.066;2024-01-15T15:23:37;1.90;99.90
23475;DHT22;11910;52.086;21.066;2024-01-15T15:26:04;2.00;99.90
23475;DHT22;11910;52.086;21.066;2024-01-15T15:28:30;2.00;99.90
23475;DHT22;11910;52.086;21.066;2024-01-15T15:30:55;1.90;99.90
23475;DHT22;11910;52.086;21.066;2024-01-15T15:33:22;1.80;99.90
23475;DHT22;11910;52.086;21.066;2024-01-15T15:35:48;1.80;99.90
23475;DHT22;11910;52.086;21.066;2024-01-15T15:38:16;1.80;99.90
23475;DHT22;11910;52.086;21.066;2024-01-15T15:40:42;1.70;99.90
23475;DHT22;11910;52.086;21.066;2024-01-15T15:43:08;1.70;99.90